• Join FlightAware (Why Join?)
  • Login
  • US Flag 
10:20PM EDT


 

Airport Tracker/Info


-or-


 

Live Flight TrackerFlight Track Log ✈ N163CA ✈ 30-Oct-2013 ✈ KSFB - KEYW

Flight Track Log - Related Links

Times and Time Zones

All times are in EDT time to prevent confusion due to time zone crossing. See the N163CA flight status page for this flight to view local times or setup timezone preferences in your user account.

Time Position Orientation Groundspeed Altitude Reporting Facility
EDT Latitude Longitude Course Direction KTS MPH feet Rate Location/Type
08:58AM 28.7833 -81.2333 120° Southeast 88 101 600  Level Orlando TRACON
08:59AM 28.7667 -81.2000 120° Southeast 85 98 1,700 480 Climbing Orlando TRACON
09:00AM 28.7667 -81.1500 90° East 101 116 1,900 60 Climbing Orlando TRACON
09:01AM 28.7500 -81.1167 120° Southeast 111 128 1,900  Level Orlando TRACON
09:02AM 28.7500 -81.1000 90° East 105 121 2,000 360 Climbing Orlando TRACON
09:03AM 28.7333 -81.0667 120° Southeast 102 117 2,600 420 Climbing Orlando TRACON
09:04AM 28.7333 -81.0333 90° East 102 117 2,900 180 Climbing Orlando TRACON
09:05AM 28.7000 -81.0500 204° Southwest 123 142 3,000  Climbing Orlando TRACON
09:06AM 28.7000 -81.1000 270° West 123 142 3,000 -60 Level Orlando TRACON
09:07AM 28.7000 -81.1333 270° West 144 166 2,900 -60 Descending Orlando TRACON
09:08AM 28.6833 -81.1833 249° West 150 173 2,900  Level Orlando TRACON
09:09AM 28.6833 -81.2333 270° West 157 181 2,900  Level Orlando TRACON
09:10AM 28.6667 -81.2667 240° Southwest 152 175 3,000  Climbing Orlando TRACON
09:11AM 28.6667 -81.3333 270° West 153 176 2,900 60 Descending Orlando TRACON
09:12AM 28.6667 -81.3667 270° West 146 168 3,200 600 Climbing Orlando TRACON
09:13AM 28.6500 -81.4167 249° West 113 130 4,200 900 Climbing Orlando TRACON
09:14AM 28.6500 -81.4500 270° West 111 128 5,200 840 Climbing Orlando TRACON
09:15AM 28.6500 -81.4833 270° West 113 130 5,900 420 Climbing Orlando TRACON
09:16AM 28.6500 -81.5167 270° West 141 162 6,000  Climbing Orlando TRACON
09:17AM 28.6167 -81.5500 221° Southwest 147 169 6,000  Level Orlando TRACON
09:18AM 28.5667 -81.5667 196° South 149 171 6,000 360 Level Orlando TRACON
09:19AM 28.5333 -81.5500 156° South 129 148 6,800 780 Climbing Orlando TRACON
09:20AM 28.5000 -81.5500 180° South 117 135 7,500 600 Climbing Orlando TRACON
09:21AM 28.4667 -81.5500 180° South 114 131 8,000 180 Climbing Orlando TRACON
09:22AM 28.4333 -81.5500 180° South 143 165 7,900  Descending Orlando TRACON
09:23AM 28.3833 -81.5333 164° South 156 180 8,000  Climbing Orlando TRACON
09:24AM 28.3500 -81.5333 180° South 153 176 7,900 -60 Descending Orlando TRACON
09:25AM 28.3000 -81.5167 164° South 152 175 7,900  Level Orlando TRACON
09:26AM 28.2667 -81.5167 180° South 150 173 8,000  Climbing Orlando TRACON
09:27AM 28.2167 -81.5000 164° South 152 175 7,900 -60 Descending Orlando TRACON
09:28AM 28.1833 -81.5000 180° South 154 177 7,900  Level Orlando TRACON
09:30AM 28.1028 -81.4933 176° South 157 181 8,000  Climbing Miami Center
09:31AM 28.0589 -81.4964 184° South 157 181 7,900 -60 Descending Miami Center
09:32AM 28.0150 -81.4992 183° South 157 181 7,900  Level Miami Center
09:33AM 27.9731 -81.4997 181° South 157 181 7,900  Level Miami Center
09:34AM 27.9314 -81.5006 181° South 157 181 8,000  Climbing Miami Center
09:35AM 27.8894 -81.5058 186° South 157 181 8,000  Level Miami Center
09:36AM 27.8478 -81.5089 184° South 157 181 8,000  Level Miami Center
09:37AM 27.8039 -81.5117 183° South 157 181 8,000  Level Miami Center
09:38AM 27.7619 -81.5169 186° South 157 181 8,000 -300 Level Miami Center
09:39AM 27.7158 -81.5175 181° South 162 186 7,400 -540 Descending Miami Center
09:40AM 27.6678 -81.5225 185° South 167 192 7,000 -240 Descending Miami Center
09:41AM 27.6239 -81.5253 183° South 167 192 7,000  Level Miami Center
09:42AM 27.5778 -81.5306 186° South 162 186 7,000 -60 Level Miami Center
09:43AM 27.5339 -81.5336 184° South 162 186 6,900 -60 Descending Miami Center
09:44AM 27.4900 -81.5364 183° South 162 186 6,900  Level Miami Center
09:45AM 27.4481 -81.5417 186° South 162 186 6,900  Level Miami Center
09:46AM 27.4042 -81.5422 181° South 162 186 6,900  Level Miami Center
09:47AM 27.3603 -81.5453 184° South 162 186 6,900  Level Miami Center
09:48AM 27.3161 -81.5528 189° South 162 186 6,900  Level Miami Center
09:49AM 27.2722 -81.5556 183° South 162 186 6,900  Level Miami Center
09:50AM 27.2283 -81.5583 183° South 162 186 6,900  Level Miami Center
09:51AM 27.1844 -81.5614 184° South 162 186 6,900  Level Miami Center
09:52AM 27.1403 -81.5689 189° South 162 186 6,900 -60 Level Miami Center
09:53AM 27.0942 -81.5717 183° South 162 186 6,800  Descending Miami Center
09:54AM 27.0503 -81.5769 186° South 162 186 6,900  Climbing Miami Center
09:55AM 27.0064 -81.5750 178° South 162 186 6,800  Descending Miami Center
09:56AM 26.9625 -81.5756 181° South 162 186 6,900  Climbing Miami Center
09:58AM 26.9127 -81.5794 184° South  Level FlightAware Approximate
10:05AM 26.6575 -81.5993 184° South  Level FlightAware Approximate
10:06AM 26.6211 -81.6021 184° South  Level FlightAware Approximate
10:07AM 26.5846 -81.6050 184° South  Level FlightAware Approximate
10:07AM 26.4997 -81.5569 184° South 153 176 6,900  Level Miami Center
10:08AM 26.5482 -81.6078 184° South  Level FlightAware Approximate
10:08AM 26.4558 -81.5553 178° South 160 184 6,800  Level Miami Center
10:09AM 26.5117 -81.6106 184° South  Level FlightAware Approximate
10:09AM 26.4122 -81.5558 181° South 160 184 6,900  Level Miami Center
10:10AM 26.4753 -81.6134 184° South  Level FlightAware Approximate
10:10AM 26.3642 -81.5564 181° South 160 184 6,900  Level Miami Center
10:11AM 26.4388 -81.6162 184° South  Level FlightAware Approximate
10:11AM 26.3200 -81.5617 186° South 160 184 6,900  Level Miami Center
10:12AM 26.2761 -81.5644 183° South 155 178 6,900  Level Miami Center
10:13AM 26.2361 -81.5744 193° South 161 185 6,900  Level Miami Center
10:14AM 26.1881 -81.5794 185° South 156 180 6,900  Level Miami Center
10:15AM 26.1481 -81.5847 187° South 161 185 6,900  Level Miami Center
10:16AM 26.1019 -81.5922 188° South 161 185 6,900  Level Miami Center
10:17AM 26.0578 -81.5997 189° South 156 180 6,900  Level Miami Center
10:18AM 26.0242 -81.6031 185° South 156 180 6,900  Level Miami Center
10:19AM 25.9803 -81.6058 183° South 156 180 6,900  Level Miami Center
10:20AM 25.9364 -81.6086 183° South 161 185 6,900  Level Miami Center
10:21AM 25.8925 -81.6117 184° South 156 180 6,900  Level Miami Center
10:22AM 25.8506 -81.6122 181° South 156 180 6,900  Level Miami Center
10:23AM 25.8069 -81.6128 181° South 156 180 6,900  Level Miami Center
10:24AM 25.7647 -81.6203 189° South 156 180 6,900 -60 Level Miami Center
10:25AM 25.7189 -81.6231 183° South 162 186 6,800  Descending Miami Center
10:26AM 25.6811 -81.6264 185° South 162 186 6,900 -180 Climbing Miami Center
10:27AM 25.6350 -81.6314 186° South 162 186 6,500 -360 Descending Miami Center
10:28AM 25.5889 -81.6342 183° South 162 186 6,200 -360 Descending Miami Center
10:29AM 25.5428 -81.6439 191° South 162 186 5,800 -360 Descending Miami Center
10:30AM 25.4964 -81.6536 191° South 162 186 5,500 -360 Descending Miami Center
10:31AM 25.4503 -81.6608 188° South 162 186 5,100 -300 Descending Miami Center
10:32AM 25.4042 -81.6636 183° South 162 186 4,900 -240 Descending Miami Center
10:33AM 25.3581 -81.6686 186° South 162 186 4,700 -300 Descending Miami Center
10:34AM 25.3119 -81.6739 186° South 162 186 4,300 -300 Descending Miami Center
10:35AM 25.2658 -81.6811 188° South 167 192 4,100 -300 Descending Miami Center
10:36AM 25.2197 -81.6864 186° South 167 192 3,800 -120 Descending Miami Center
10:37AM 25.1778 -81.6914 186° South 162 186 3,900  Climbing Miami Center
10:38AM 25.1336 -81.6989 189° South 157 181 3,900  Level Miami Center
10:39AM 25.0917 -81.7064 189° South 162 186 3,900 -240 Level Miami Center
10:40AM 25.0494 -81.7231 200° South 162 186 3,500 -420 Descending Miami Center
10:41AM 25.0047 -81.7442 203° Southwest 173 199 3,100 -300 Descending Miami Center
10:42AM 24.9622 -81.7678 207° Southwest 173 199 2,900 -180 Descending Miami Center
10:43AM 24.9219 -81.7889 205° Southwest 173 199 2,800  Descending Miami Center
10:44AM 24.8836 -81.8128 209° Southwest 173 199 2,900  Climbing Miami Center
10:45AM 24.8431 -81.8386 210° Southwest 168 193 2,900  Level Miami Center
10:46AM 24.8067 -81.8622 210° Southwest 163 188 2,900  Level Miami Center
10:47AM 24.7683 -81.8858 209° Southwest 163 188 2,900  Level Miami Center
10:49AM 24.7332 -81.8228 122° Southeast  Level FlightAware Approximate
10:56AM 24.5561 -81.7596 180° South  Level Estimated
10:57AM 24.5561 -81.7596 180° South  Level Estimated
10:58AM 24.5561 -81.7596 180° South  Level Estimated
10:59AM 24.5561 -81.7596 180° South  Level Estimated
11:00AM 24.5561 -81.7596 180° South  Level Estimated
11:01AM 24.5561 -81.7596 180° South  Level Estimated
11:02AM 24.5561 -81.7596 180° South  Level Estimated
11:03AM 24.5561 -81.7596 180° South  Level Estimated
11:04AM 24.5561 -81.7596 180° South  Level Estimated
11:05AM 24.5561 -81.7596 180° South  Level Estimated
11:06AM 24.5561 -81.7596 180° South  Level Estimated